Time;durP1;ratioP1;P1;durP2;ratioP2;P2;SDS_P1;SDS_P2;PMS_P1;PMS_P2;Temp;Humidity;BMP_temperature;BMP_pressure;BME280_temperature;BME280_humidity;BME280_pressure;Samples;Min_cycle;Max_cycle;Signal;HPM_P1;HPM_P2
2022/01/22 00:02:08;;;;;;;5.00;4.25;;;4.90;99.90;;;;;;5025494;28;20308;-52
2022/01/22 00:04:37;;;;;;;6.82;4.00;;;4.90;99.90;;;;;;5016518;28;20228;-52
2022/01/22 00:07:06;;;;;;;4.30;3.90;;;4.90;99.90;;;;;;5008565;28;20665;-52
2022/01/22 00:09:52;;;;;;;4.63;4.13;;;4.90;99.90;;;;;;5019088;28;20224;-51
2022/01/22 00:12:42;;;;;;;4.70;3.80;;;4.90;99.90;;;;;;5027848;28;20193;-50
2022/01/22 00:15:12;;;;;;;4.57;4.10;;;4.90;99.90;;;;;;5024533;28;20680;-52
2022/01/22 00:17:41;;;;;;;5.25;4.00;;;4.90;99.90;;;;;;5018970;28;20236;-51
2022/01/22 00:20:11;;;;;;;6.25;4.55;;;4.90;99.90;;;;;;5027212;28;20233;-51
2022/01/22 00:22:39;;;;;;;5.95;4.47;;;4.90;99.90;;;;;;5027682;28;20624;-52
2022/01/22 00:25:10;;;;;;;5.97;4.80;;;4.90;99.90;;;;;;5021379;28;20317;-51
2022/01/22 00:27:40;;;;;;;4.80;3.65;;;4.90;99.90;;;;;;5028070;28;20204;-51
2022/01/22 00:30:10;;;;;;;4.13;3.70;;;4.90;99.90;;;;;;5026702;28;20232;-50
2022/01/22 00:32:38;;;;;;;6.80;4.20;;;4.90;99.90;;;;;;5018555;28;20232;-50
2022/01/22 00:35:08;;;;;;;5.00;3.20;;;4.90;99.90;;;;;;5027259;28;20290;-52
2022/01/22 00:37:41;;;;;;;4.28;3.55;;;4.90;99.90;;;;;;4990772;28;20216;-51
2022/01/22 00:40:13;;;;;;;3.50;3.20;;;4.90;99.90;;;;;;5007977;28;20252;-51
2022/01/22 00:42:41;;;;;;;6.00;4.40;;;4.90;99.90;;;;;;5005963;28;20495;-51
2022/01/22 00:45:10;;;;;;;4.97;4.15;;;4.90;99.90;;;;;;5008236;28;20252;-51
2022/01/22 00:47:40;;;;;;;7.72;4.45;;;4.90;99.90;;;;;;5000227;28;20209;-51
2022/01/22 00:50:12;;;;;;;5.88;4.50;;;4.90;99.90;;;;;;5027193;28;20553;-52
2022/01/22 00:52:41;;;;;;;5.10;3.75;;;4.90;99.90;;;;;;5028136;28;20284;-52
2022/01/22 00:55:11;;;;;;;4.45;3.75;;;4.90;99.90;;;;;;5021203;28;20226;-51
2022/01/22 00:57:39;;;;;;;7.75;5.45;;;4.90;99.90;;;;;;4994428;28;20661;-52
2022/01/22 01:00:11;;;;;;;3.88;3.40;;;4.90;99.90;;;;;;4991421;28;20225;-51
2022/01/22 01:02:39;;;;;;;4.40;3.70;;;4.90;99.90;;;;;;5024756;28;20654;-52
2022/01/22 01:05:10;;;;;;;5.90;4.15;;;4.90;99.90;;;;;;5014283;28;20750;-50
2022/01/22 01:07:40;;;;;;;4.45;3.47;;;4.90;99.90;;;;;;5031644;28;20197;-51
2022/01/22 01:10:14;;;;;;;6.72;3.80;;;4.90;99.90;;;;;;5027876;28;20687;-52
2022/01/22 01:12:43;;;;;;;7.47;3.92;;;4.90;99.90;;;;;;5014054;28;20667;-51
2022/01/22 01:15:23;;;;;;;4.75;3.65;;;4.90;99.90;;;;;;5012878;28;20591;-52
2022/01/22 01:18:06;;;;;;;8.43;4.82;;;4.90;99.90;;;;;;5030712;28;20197;-52
2022/01/22 01:34:25;;;;;;;6.50;4.78;;;4.90;99.90;;;;;;5013068;28;20623;-51
2022/01/22 01:36:53;;;;;;;6.85;3.90;;;4.90;99.90;;;;;;5030760;28;20315;-51
2022/01/22 01:39:26;;;;;;;4.30;3.90;;;4.90;99.90;;;;;;5031105;28;20217;-52
2022/01/22 01:42:00;;;;;;;4.28;3.88;;;4.90;99.90;;;;;;5012144;28;20244;-51
2022/01/22 01:44:29;;;;;;;5.07;4.65;;;4.90;99.90;;;;;;5003012;28;20188;-52
2022/01/22 01:47:06;;;;;;;6.93;5.80;;;4.90;99.90;;;;;;5030177;28;20275;-52
2022/01/22 01:49:36;;;;;;;5.25;4.20;;;4.90;99.90;;;;;;5011998;28;20639;-52
2022/01/22 01:52:13;;;;;;;5.22;4.18;;;4.90;99.90;;;;;;5013424;28;20702;-51
2022/01/22 01:54:48;;;;;;;6.95;4.60;;;4.90;99.90;;;;;;5010381;28;20284;-52
2022/01/22 01:57:31;;;;;;;4.18;3.70;;;4.90;99.90;;;;;;5009099;28;20202;-51
2022/01/22 02:00:00;;;;;;;6.80;4.80;;;4.90;99.90;;;;;;5010178;28;20227;-51
2022/01/22 02:02:45;;;;;;;5.25;4.22;;;4.90;99.90;;;;;;5022639;28;20262;-51
2022/01/22 02:05:20;;;;;;;5.85;4.50;;;4.90;99.90;;;;;;5004511;28;20227;-51
2022/01/22 02:07:49;;;;;;;4.45;4.05;;;4.90;99.90;;;;;;5013852;28;20193;-51
2022/01/22 02:10:21;;;;;;;4.95;4.30;;;4.90;99.90;;;;;;5012562;28;20231;-51
2022/01/22 02:24:22;;;;;;;5.07;4.50;;;4.90;99.90;;;;;;5000706;28;20276;-52
2022/01/22 02:26:52;;;;;;;8.15;4.20;;;4.90;99.90;;;;;;5012448;28;20236;-52
2022/01/22 02:29:29;;;;;;;5.60;3.92;;;4.90;99.90;;;;;;5010440;28;20283;-51
2022/01/22 02:35:25;;;;;;;5.78;5.18;;;4.90;99.90;;;;;;5000087;28;20412;-51
2022/01/22 02:37:59;;;;;;;4.97;4.03;;;4.90;99.90;;;;;;5028633;28;20659;-51
2022/01/22 02:40:30;;;;;;;5.50;3.65;;;4.90;99.90;;;;;;5009962;28;20208;-51
2022/01/22 02:43:00;;;;;;;4.50;4.10;;;4.90;99.90;;;;;;4996976;28;20759;-51
2022/01/22 02:45:31;;;;;;;8.73;5.13;;;4.90;99.90;;;;;;4990164;28;20271;-52
2022/01/22 02:47:59;;;;;;;8.45;4.80;;;4.90;99.90;;;;;;5020985;28;20284;-51
2022/01/22 02:50:28;;;;;;;5.30;4.78;;;4.90;99.90;;;;;;5010379;28;20311;-52
2022/01/22 02:53:02;;;;;;;5.60;5.07;;;4.90;99.90;;;;;;5028867;28;20706;-51
2022/01/22 02:55:31;;;;;;;6.75;5.60;;;4.90;99.90;;;;;;5009623;28;20232;-51
2022/01/22 02:58:00;;;;;;;6.10;4.60;;;4.90;99.90;;;;;;5006535;28;20202;-51
2022/01/22 03:00:31;;;;;;;6.00;4.85;;;4.90;99.90;;;;;;4974671;28;20229;-51
2022/01/22 03:02:59;;;;;;;5.18;4.72;;;4.90;99.90;;;;;;5021005;28;20221;-51
2022/01/22 03:05:31;;;;;;;6.28;5.10;;;4.90;99.90;;;;;;4989897;28;20237;-52
2022/01/22 03:08:05;;;;;;;5.93;5.32;;;4.90;99.90;;;;;;4991238;28;20210;-52
2022/01/22 03:10:34;;;;;;;5.30;4.78;;;4.90;99.90;;;;;;5026751;28;20220;-52
2022/01/22 03:13:24;;;;;;;9.85;7.68;;;4.90;99.90;;;;;;5010608;28;20556;-51
2022/01/22 03:16:08;;;;;;;6.68;5.93;;;4.90;99.90;;;;;;4990111;28;20225;-52
2022/01/22 03:18:44;;;;;;;5.18;4.68;;;4.90;99.90;;;;;;5007442;28;20216;-51
2022/01/22 03:21:25;;;;;;;10.02;6.38;;;4.90;99.90;;;;;;5010069;28;20228;-52
2022/01/22 03:29:37;;;;;;;5.80;4.40;;;4.90;99.90;;;;;;4997025;28;20693;-51
2022/01/22 03:32:08;;;;;;;5.82;4.88;;;4.90;99.90;;;;;;4995178;28;20792;-51
2022/01/22 03:34:42;;;;;;;8.02;4.20;;;4.90;99.90;;;;;;5026527;28;20197;-50
2022/01/22 03:37:11;;;;;;;5.25;4.75;;;4.90;99.90;;;;;;5010035;28;20561;-51
2022/01/22 03:39:40;;;;;;;6.25;4.80;;;4.90;99.90;;;;;;5009310;28;20217;-51
2022/01/22 03:42:09;;;;;;;8.95;6.40;;;4.90;99.90;;;;;;5009874;28;20276;-52
2022/01/22 03:44:37;;;;;;;7.20;6.50;;;4.90;99.90;;;;;;5011998;28;20197;-52
2022/01/22 03:47:06;;;;;;;5.72;4.55;;;4.90;99.90;;;;;;5008060;28;20232;-51
2022/01/22 03:49:34;;;;;;;11.00;6.40;;;4.90;99.90;;;;;;5026875;28;20209;-51
2022/01/22 03:52:04;;;;;;;7.97;6.32;;;4.90;99.90;;;;;;5008253;28;20280;-51
2022/01/22 03:54:32;;;;;;;8.25;6.13;;;4.90;99.90;;;;;;5027608;28;20185;-51
2022/01/22 03:57:02;;;;;;;10.52;6.50;;;4.90;99.90;;;;;;5020890;28;20734;-51
2022/01/22 03:59:39;;;;;;;7.65;4.05;;;4.90;99.90;;;;;;4989969;28;20209;-52
2022/01/22 04:05:12;;;;;;;8.10;6.07;;;4.90;99.90;;;;;;4992679;28;20225;-51
2022/01/22 04:08:06;;;;;;;6.15;5.05;;;4.90;99.90;;;;;;4990322;28;20192;-51
2022/01/22 04:10:36;;;;;;;6.30;5.70;;;4.90;99.90;;;;;;4989378;28;20224;-52
2022/01/22 04:13:08;;;;;;;6.47;4.45;;;4.90;99.90;;;;;;5007244;28;20645;-52
2022/01/22 04:15:39;;;;;;;6.05;5.47;;;4.90;99.90;;;;;;5013256;28;21118;-51
2022/01/22 04:26:39;;;;;;;6.78;5.93;;;4.90;99.90;;;;;;5011637;28;20237;-51
2022/01/22 04:29:08;;;;;;;6.85;5.22;;;4.90;99.90;;;;;;5027033;28;20720;-52
2022/01/22 04:31:37;;;;;;;6.53;5.60;;;4.90;99.90;;;;;;5024899;28;20577;-51
2022/01/22 04:34:06;;;;;;;5.50;5.00;;;4.90;99.90;;;;;;5008785;28;20932;-51
2022/01/22 04:36:34;;;;;;;9.18;6.03;;;4.90;99.90;;;;;;4999758;28;20252;-50
2022/01/22 04:39:02;;;;;;;5.30;4.80;;;4.90;99.90;;;;;;4989778;28;20252;-52
2022/01/22 04:41:30;;;;;;;6.05;4.93;;;4.90;99.90;;;;;;5024411;28;20224;-52
2022/01/22 04:44:02;;;;;;;6.45;5.35;;;4.90;99.90;;;;;;5027055;28;20212;-52
2022/01/22 04:46:55;;;;;;;6.28;5.28;;;4.90;99.90;;;;;;5007168;28;20221;-51
2022/01/22 04:55:01;;;;;;;4.85;4.32;;;4.90;99.90;;;;;;5003234;28;20224;-51
2022/01/22 04:57:37;;;;;;;5.80;5.30;;;4.90;99.90;;;;;;5002994;28;20209;-52
2022/01/22 05:00:08;;;;;;;5.43;4.72;;;4.90;99.90;;;;;;5006344;28;20648;-51
2022/01/22 05:02:58;;;;;;;5.65;5.05;;;4.90;99.90;;;;;;5025746;28;20227;-51
2022/01/22 05:05:46;;;;;;;8.30;5.47;;;4.90;99.90;;;;;;5023931;28;20639;-50
2022/01/22 05:08:34;;;;;;;6.50;5.75;;;4.90;99.90;;;;;;5026761;28;20212;-51
2022/01/22 05:11:11;;;;;;;5.45;4.95;;;4.90;99.90;;;;;;5002734;28;20221;-51
2022/01/22 05:13:41;;;;;;;6.63;5.50;;;4.90;99.90;;;;;;4989137;28;20190;-50
2022/01/22 05:16:12;;;;;;;5.40;4.80;;;4.90;99.90;;;;;;4988557;28;20276;-51
2022/01/22 05:18:50;;;;;;;5.82;5.22;;;4.90;99.90;;;;;;5007235;28;20248;-51
2022/01/22 05:21:20;;;;;;;5.75;5.22;;;4.90;99.90;;;;;;5007657;28;20216;-51
2022/01/22 05:23:50;;;;;;;6.20;5.60;;;4.90;99.90;;;;;;5009067;28;20569;-52
2022/01/22 05:26:45;;;;;;;4.40;4.00;;;4.90;99.90;;;;;;5007230;28;20224;-50
2022/01/22 05:29:22;;;;;;;8.25;5.80;;;4.90;99.90;;;;;;5024668;28;20648;-51
2022/01/22 05:32:31;;;;;;;6.75;5.25;;;4.90;99.90;;;;;;5008929;28;20275;-51
2022/01/22 05:38:08;;;;;;;5.20;4.70;;;4.90;99.90;;;;;;5006752;28;20677;-50
2022/01/22 05:40:36;;;;;;;5.72;4.60;;;4.90;99.90;;;;;;5006321;28;20746;-52
2022/01/22 05:43:05;;;;;;;6.32;4.93;;;4.90;99.90;;;;;;5024318;28;20193;-52
2022/01/22 05:45:33;;;;;;;5.40;4.85;;;4.90;99.90;;;;;;5025420;28;20232;-51
2022/01/22 05:48:01;;;;;;;8.10;4.95;;;4.90;99.90;;;;;;5027315;28;20209;-51
2022/01/22 05:50:34;;;;;;;6.70;4.95;;;4.90;99.90;;;;;;5029248;28;20658;-51
2022/01/22 05:53:12;;;;;;;6.82;5.78;;;4.90;99.90;;;;;;5005406;28;20201;-51
2022/01/22 06:01:35;;;;;;;5.18;4.68;;;4.90;99.90;;;;;;4992226;28;20239;-51
2022/01/22 06:04:14;;;;;;;11.70;4.85;;;4.90;99.90;;;;;;5011351;28;20223;-51
2022/01/22 06:06:44;;;;;;;6.00;4.60;;;4.90;99.90;;;;;;5003868;28;20855;-52
2022/01/22 06:09:12;;;;;;;4.95;4.55;;;4.90;99.90;;;;;;4992469;28;20214;-51
2022/01/22 06:11:53;;;;;;;5.43;4.93;;;4.90;99.90;;;;;;5015661;28;20225;-50
2022/01/22 06:14:25;;;;;;;4.88;4.47;;;4.90;99.90;;;;;;4992322;28;20198;-51
2022/01/22 06:16:59;;;;;;;5.00;4.32;;;4.90;99.90;;;;;;5007736;28;20315;-52
2022/01/22 06:19:34;;;;;;;6.85;5.32;;;4.90;99.90;;;;;;5011375;28;20222;-52
2022/01/22 06:22:04;;;;;;;7.00;6.28;;;4.90;99.90;;;;;;4991584;28;20222;-52
2022/01/22 06:24:34;;;;;;;5.70;4.72;;;4.90;99.90;;;;;;4993080;28;20284;-51
2022/01/22 06:27:07;;;;;;;5.70;4.90;;;4.90;99.90;;;;;;5011305;28;20315;-51
2022/01/22 06:29:35;;;;;;;5.78;4.63;;;4.90;99.90;;;;;;5010605;28;20726;-50
2022/01/22 06:32:05;;;;;;;6.38;5.68;;;4.90;99.90;;;;;;5006937;28;20194;-52
2022/01/22 06:34:37;;;;;;;5.68;4.80;;;4.90;99.90;;;;;;4990936;28;20197;-51
2022/01/22 06:37:06;;;;;;;7.70;4.85;;;4.90;99.90;;;;;;4991880;28;20754;-52
2022/01/22 06:43:05;;;;;;;6.05;5.50;;;4.90;99.90;;;;;;5025729;28;20208;-51
2022/01/22 06:45:52;;;;;;;6.55;5.90;;;4.90;99.90;;;;;;4994593;28;20222;-51
2022/01/22 06:48:21;;;;;;;7.57;5.07;;;4.90;99.90;;;;;;4994178;28;20240;-51
2022/01/22 06:51:15;;;;;;;7.05;5.30;;;4.90;99.90;;;;;;4990901;28;20292;-51
2022/01/22 06:53:44;;;;;;;7.15;6.40;;;4.90;99.90;;;;;;4990644;28;20229;-52
2022/01/22 06:56:19;;;;;;;6.57;5.28;;;4.90;99.90;;;;;;4994409;28;20216;-52
2022/01/22 06:59:08;;;;;;;7.43;5.55;;;4.90;99.90;;;;;;5027502;28;20748;-52
2022/01/22 07:01:37;;;;;;;4.53;4.13;;;4.90;99.90;;;;;;5009300;28;20613;-51
2022/01/22 07:04:13;;;;;;;6.82;5.10;;;4.90;99.90;;;;;;4992058;28;20263;-52
2022/01/22 07:06:53;;;;;;;5.78;4.95;;;4.90;99.90;;;;;;4994350;28;20221;-51
2022/01/22 07:09:23;;;;;;;5.45;4.90;;;4.90;99.90;;;;;;5010678;28;20594;-51
2022/01/22 07:11:51;;;;;;;6.00;5.47;;;4.90;99.90;;;;;;5008482;28;20229;-51
2022/01/22 07:14:20;;;;;;;5.45;4.90;;;4.90;99.90;;;;;;5028006;28;20474;-52
2022/01/22 07:16:50;;;;;;;8.50;7.70;;;4.90;99.90;;;;;;5003094;28;20221;-52
2022/01/22 07:19:38;;;;;;;9.68;5.20;;;4.90;99.90;;;;;;5010179;28;20221;-52
2022/01/22 07:22:36;;;;;;;6.80;5.97;;;4.90;99.90;;;;;;5028226;28;20231;-51
2022/01/22 07:25:32;;;;;;;5.85;5.13;;;4.90;99.90;;;;;;5024273;28;20609;-51
2022/01/22 07:28:11;;;;;;;7.25;5.20;;;4.90;99.90;;;;;;4990417;28;20291;-50
2022/01/22 07:30:40;;;;;;;4.93;4.22;;;4.90;99.90;;;;;;4990936;28;20218;-52
2022/01/22 07:33:09;;;;;;;6.47;5.28;;;4.90;99.90;;;;;;5004281;28;20592;-51
2022/01/22 07:35:38;;;;;;;6.70;5.82;;;4.90;99.90;;;;;;5027683;28;20225;-51
2022/01/22 07:38:10;;;;;;;6.40;5.70;;;4.90;99.90;;;;;;5007236;28;20205;-51
2022/01/22 07:40:40;;;;;;;6.10;5.03;;;4.90;99.90;;;;;;5007555;28;20276;-51
2022/01/22 07:43:19;;;;;;;8.02;6.70;;;4.90;99.90;;;;;;5009148;28;20196;-51
2022/01/22 07:46:07;;;;;;;4.82;4.35;;;4.90;99.90;;;;;;5024747;28;20231;-51
2022/01/22 07:48:43;;;;;;;7.45;6.50;;;4.90;99.90;;;;;;5009483;28;20229;-52
2022/01/22 07:51:12;;;;;;;5.25;4.72;;;4.90;99.90;;;;;;5026942;28;20316;-52
2022/01/22 07:53:44;;;;;;;7.28;5.20;;;4.90;99.90;;;;;;5010374;28;20227;-51
2022/01/22 07:56:20;;;;;;;7.00;6.28;;;4.90;99.90;;;;;;4999384;28;20700;-52
2022/01/22 07:58:48;;;;;;;6.30;5.00;;;4.90;99.90;;;;;;5025281;28;20213;-52
2022/01/22 08:01:17;;;;;;;6.68;5.90;;;4.90;99.90;;;;;;5008490;28;20248;-51
2022/01/22 08:04:24;;;;;;;6.88;5.85;;;4.90;99.90;;;;;;4957961;28;20203;-51
2022/01/22 08:06:58;;;;;;;6.80;5.43;;;4.90;99.90;;;;;;5015113;28;20336;-52
2022/01/22 08:09:30;;;;;;;7.10;5.57;;;4.90;99.90;;;;;;5007362;28;20683;-52
2022/01/22 08:12:06;;;;;;;6.30;5.40;;;4.90;99.90;;;;;;5012891;28;20226;-51
2022/01/22 08:14:34;;;;;;;5.78;5.15;;;4.90;99.90;;;;;;5002389;28;20255;-52
2022/01/22 08:17:03;;;;;;;10.55;7.78;;;4.90;99.90;;;;;;5019068;28;20264;-52
2022/01/22 08:19:35;;;;;;;7.55;6.53;;;4.90;99.90;;;;;;4990110;28;20245;-51
2022/01/22 08:22:14;;;;;;;6.35;5.13;;;4.90;99.90;;;;;;4990356;28;20221;-52
2022/01/22 08:25:11;;;;;;;7.80;5.85;;;4.90;99.90;;;;;;5006284;28;20712;-51
2022/01/22 08:28:52;;;;;;;7.18;6.47;;;4.90;99.90;;;;;;5004967;28;20193;-51
2022/01/22 08:30:35;;;;;;;6.32;5.32;;;4.90;99.90;;;;;;4989388;28;20225;-51
2022/01/22 08:33:32;;;;;;;6.05;5.25;;;4.90;99.90;;;;;;4987111;28;20201;-51
2022/01/22 08:35:59;;;;;;;7.40;5.68;;;4.90;99.90;;;;;;5024570;28;20275;-51
2022/01/22 08:38:30;;;;;;;6.53;5.32;;;4.90;99.90;;;;;;4997109;28;20704;-52
2022/01/22 08:40:59;;;;;;;5.88;5.28;;;4.90;99.90;;;;;;5001622;28;20217;-51
2022/01/22 08:43:32;;;;;;;5.80;4.97;;;4.90;99.90;;;;;;4995751;28;20197;-52
2022/01/22 08:46:02;;;;;;;5.43;4.93;;;4.90;99.90;;;;;;4991861;28;20221;-52
2022/01/22 08:48:31;;;;;;;6.90;4.88;;;4.90;99.90;;;;;;5007021;28;20217;-50
2022/01/22 08:51:01;;;;;;;6.40;5.38;;;4.90;99.90;;;;;;5009001;28;20637;-51
2022/01/22 08:53:47;;;;;;;6.20;5.55;;;4.90;99.90;;;;;;4989235;28;20657;-51
2022/01/22 08:56:16;;;;;;;7.28;6.50;;;4.90;99.90;;;;;;5015095;28;20316;-51
2022/01/22 08:58:46;;;;;;;7.65;6.10;;;4.90;99.90;;;;;;5005213;28;20217;-51
2022/01/22 09:01:30;;;;;;;6.10;5.45;;;4.90;99.90;;;;;;4990803;28;20723;-52
2022/01/22 09:04:05;;;;;;;6.68;5.90;;;4.90;99.90;;;;;;4997475;28;20219;-51
2022/01/22 09:06:33;;;;;;;6.72;5.75;;;4.90;99.90;;;;;;5018606;28;20256;-51
2022/01/22 09:09:13;;;;;;;6.32;5.50;;;4.90;99.90;;;;;;4994397;28;20213;-51
2022/01/22 09:11:55;;;;;;;6.15;5.55;;;4.90;99.90;;;;;;5014018;28;20239;-51
2022/01/22 09:14:43;;;;;;;6.95;6.25;;;4.90;99.90;;;;;;5008450;28;20604;-52
2022/01/22 09:17:11;;;;;;;6.25;5.65;;;4.90;99.90;;;;;;5004968;28;20324;-52
2022/01/22 09:19:40;;;;;;;7.38;6.40;;;4.90;99.90;;;;;;4988653;28;20484;-51
2022/01/22 09:22:13;;;;;;;10.23;6.80;;;4.90;99.90;;;;;;4997288;28;20274;-52
2022/01/22 09:24:41;;;;;;;10.07;7.85;;;5.00;99.90;;;;;;5008624;28;20205;-52
2022/01/22 09:27:15;;;;;;;10.35;6.10;;;4.90;99.90;;;;;;4999132;28;20558;-50
2022/01/22 09:29:46;;;;;;;7.20;6.10;;;4.90;99.90;;;;;;4996792;28;20684;-52
2022/01/22 09:32:14;;;;;;;9.25;7.78;;;4.90;99.90;;;;;;4999992;28;20565;-51
2022/01/22 09:35:15;;;;;;;10.18;7.93;;;4.90;99.90;;;;;;4992266;28;20756;-50
2022/01/22 09:38:03;;;;;;;8.50;7.20;;;5.00;99.90;;;;;;5009679;28;20201;-51
2022/01/22 09:40:50;;;;;;;6.88;6.18;;;4.90;99.90;;;;;;5014841;28;20227;-51
2022/01/22 09:43:39;;;;;;;9.88;7.55;;;5.00;99.90;;;;;;5012962;28;20259;-52
2022/01/22 09:46:30;;;;;;;8.20;7.10;;;4.90;99.90;;;;;;4994615;28;20216;-50
2022/01/22 09:49:05;;;;;;;11.85;6.70;;;4.90;99.90;;;;;;5010528;28;20216;-50
2022/01/22 09:51:56;;;;;;;9.13;7.25;;;4.90;99.90;;;;;;4995581;28;20830;-50
2022/01/22 09:54:43;;;;;;;8.80;7.07;;;4.90;99.90;;;;;;5024731;28;20572;-51
2022/01/22 09:57:44;;;;;;;9.05;6.75;;;5.00;99.90;;;;;;4977073;28;20205;-51
2022/01/22 10:00:36;;;;;;;10.02;6.88;;;4.90;99.90;;;;;;5010352;28;20608;-50
2022/01/22 10:03:21;;;;;;;8.60;6.47;;;5.00;99.90;;;;;;5011259;28;20201;-51
2022/01/22 10:06:14;;;;;;;10.63;8.30;;;4.90;99.90;;;;;;5029516;28;20335;-50
2022/01/22 10:09:05;;;;;;;7.85;6.55;;;4.90;99.90;;;;;;5010921;28;20705;-51
2022/01/22 10:12:08;;;;;;;8.35;6.30;;;4.90;99.90;;;;;;5012614;28;20713;-51
2022/01/22 10:15:12;;;;;;;9.55;7.38;;;4.90;99.90;;;;;;5016490;28;20203;-51
2022/01/22 10:17:47;;;;;;;10.02;6.30;;;4.90;99.90;;;;;;5027702;28;20231;-50
2022/01/22 10:20:36;;;;;;;6.60;5.88;;;4.90;99.90;;;;;;5029646;28;20333;-51
2022/01/22 10:23:09;;;;;;;6.72;5.90;;;5.00;99.90;;;;;;5026353;28;20240;-51
2022/01/22 10:25:41;;;;;;;9.15;6.90;;;5.00;99.90;;;;;;4990829;28;21481;-50
2022/01/22 10:28:15;;;;;;;11.05;7.00;;;4.90;99.90;;;;;;5014311;28;20232;-51
2022/01/22 10:30:45;;;;;;;8.48;6.85;;;5.00;99.90;;;;;;5028773;28;20248;-51
2022/01/22 10:36:23;;;;;;;11.02;6.53;;;5.00;99.90;;;;;;5028704;28;20271;-50
2022/01/22 10:39:25;;;;;;;10.88;8.60;;;5.00;99.90;;;;;;5028695;28;20308;-51
2022/01/22 10:41:54;;;;;;;7.75;6.70;;;5.00;99.90;;;;;;5017956;28;20244;-50
2022/01/22 10:44:40;;;;;;;13.65;8.05;;;5.00;99.90;;;;;;5010332;28;20190;-51
2022/01/22 10:47:18;;;;;;;8.77;7.30;;;5.00;99.90;;;;;;4998121;28;20229;-50
2022/01/22 10:49:47;;;;;;;11.90;8.55;;;5.00;99.90;;;;;;5028251;28;20209;-51
2022/01/22 10:52:16;;;;;;;10.13;7.35;;;5.00;99.90;;;;;;5023312;28;20276;-51
2022/01/22 10:54:46;;;;;;;10.27;7.97;;;5.00;99.90;;;;;;5011092;28;20193;-50
2022/01/22 10:57:17;;;;;;;8.80;7.85;;;5.00;99.90;;;;;;5029807;28;20192;-51
2022/01/22 10:59:47;;;;;;;8.63;6.97;;;5.00;99.90;;;;;;5028718;28;20240;-51
2022/01/22 11:02:17;;;;;;;7.18;5.95;;;5.00;99.90;;;;;;5024948;28;20196;-51
2022/01/22 11:04:47;;;;;;;10.23;8.88;;;5.00;99.90;;;;;;5029042;28;20197;-51
2022/01/22 11:07:19;;;;;;;10.65;7.25;;;5.00;99.90;;;;;;5029782;28;20608;-51
2022/01/22 11:09:54;;;;;;;10.98;6.90;;;5.00;99.90;;;;;;5029522;28;20592;-51
2022/01/22 11:12:22;;;;;;;9.50;7.15;;;5.00;99.90;;;;;;5008379;28;20285;-50
2022/01/22 11:14:50;;;;;;;7.70;6.95;;;5.00;99.90;;;;;;5008792;28;20298;-51
2022/01/22 11:17:21;;;;;;;8.00;6.40;;;5.00;99.90;;;;;;5014982;28;20221;-50
2022/01/22 11:19:52;;;;;;;9.55;8.27;;;5.00;99.90;;;;;;5016244;28;20209;-51
2022/01/22 11:22:27;;;;;;;8.52;6.63;;;5.00;99.90;;;;;;5028502;28;20300;-50
2022/01/22 11:24:57;;;;;;;9.60;7.38;;;5.00;99.90;;;;;;5013135;28;20378;-51
2022/01/22 11:27:25;;;;;;;8.98;7.30;;;5.00;99.90;;;;;;5010308;28;20252;-51
2022/01/22 11:29:58;;;;;;;8.82;7.18;;;5.00;99.90;;;;;;5023630;28;20279;-51
2022/01/22 11:32:30;;;;;;;8.30;7.07;;;5.00;99.90;;;;;;5007854;28;20292;-51
2022/01/22 11:35:02;;;;;;;13.43;9.65;;;5.00;99.90;;;;;;5011012;28;20523;-51
2022/01/22 11:37:37;;;;;;;8.95;7.10;;;5.00;99.90;;;;;;5021835;28;20186;-51
2022/01/22 11:40:14;;;;;;;9.27;8.00;;;5.00;99.90;;;;;;5027419;28;20774;-50
2022/01/22 11:42:59;;;;;;;8.73;7.05;;;5.00;99.90;;;;;;5031188;28;20190;-50
2022/01/22 11:45:30;;;;;;;8.25;7.07;;;5.00;99.90;;;;;;5041538;28;20220;-50
2022/01/22 11:48:14;;;;;;;8.43;7.00;;;5.00;99.90;;;;;;5019367;28;20210;-51
2022/01/22 11:50:43;;;;;;;8.57;7.35;;;5.00;99.90;;;;;;5013485;28;20798;-51
2022/01/22 11:53:25;;;;;;;11.18;7.93;;;5.00;99.90;;;;;;5027186;28;20201;-51
2022/01/22 11:56:21;;;;;;;9.32;7.40;;;5.00;99.90;;;;;;5024390;28;20220;-51
2022/01/22 11:59:18;;;;;;;9.43;7.22;;;5.00;99.90;;;;;;5026602;28;20209;-51
2022/01/22 12:01:56;;;;;;;12.38;7.55;;;5.00;99.90;;;;;;5013528;28;20221;-51
2022/01/22 12:04:26;;;;;;;7.93;6.40;;;5.00;99.90;;;;;;5026509;28;20189;-51
2022/01/22 12:07:16;;;;;;;13.95;7.82;;;5.00;99.90;;;;;;5026441;28;20231;-50
2022/01/22 12:10:16;;;;;;;9.07;7.43;;;5.00;99.90;;;;;;5011506;28;20213;-51
2022/01/22 12:15:53;;;;;;;9.30;6.85;;;5.00;99.90;;;;;;5006792;28;20855;-50
2022/01/22 12:18:33;;;;;;;8.23;7.15;;;5.00;99.90;;;;;;5022856;28;20224;-51
2022/01/22 12:23:59;;;;;;;9.40;7.43;;;5.00;99.90;;;;;;5007054;28;20190;-51
2022/01/22 12:26:50;;;;;;;8.95;7.60;;;5.00;99.90;;;;;;4986761;28;20216;-50
2022/01/22 12:29:36;;;;;;;8.18;7.20;;;5.00;99.90;;;;;;5013431;28;20252;-50
2022/01/22 12:32:20;;;;;;;9.68;6.93;;;5.00;99.90;;;;;;5017434;28;20308;-50
2022/01/22 12:35:05;;;;;;;8.45;6.55;;;5.00;99.90;;;;;;5025498;28;20197;-50
2022/01/22 12:37:38;;;;;;;11.05;7.57;;;5.00;99.90;;;;;;5024832;28;20189;-50
2022/01/22 12:40:08;;;;;;;8.00;6.72;;;5.00;99.90;;;;;;5026758;28;20228;-48
2022/01/22 12:42:57;;;;;;;9.05;7.47;;;5.00;99.90;;;;;;5019757;28;20681;-50
2022/01/22 12:45:26;;;;;;;12.63;7.53;;;5.10;99.90;;;;;;5011910;28;20229;-50
2022/01/22 12:47:56;;;;;;;11.52;7.78;;;5.10;99.90;;;;;;5018088;28;20445;-49
2022/01/22 12:50:31;;;;;;;8.98;7.82;;;5.10;99.90;;;;;;5012737;28;20225;-49
2022/01/22 12:53:08;;;;;;;10.15;7.60;;;5.10;99.90;;;;;;5012415;28;20197;-49
2022/01/22 12:58:26;;;;;;;12.10;8.75;;;5.10;99.90;;;;;;5003973;28;20534;-49
2022/01/22 13:01:09;;;;;;;10.75;8.45;;;5.10;99.90;;;;;;5010621;28;20217;-49
2022/01/22 13:03:43;;;;;;;12.27;8.73;;;5.10;99.90;;;;;;5023501;28;20197;-53
2022/01/22 13:06:12;;;;;;;9.30;8.38;;;5.10;99.90;;;;;;5016185;28;20217;-50
2022/01/22 13:08:59;;;;;;;8.98;7.18;;;5.10;99.90;;;;;;5018421;28;20217;-50
2022/01/22 13:11:44;;;;;;;11.68;8.50;;;5.10;99.90;;;;;;5006205;28;20224;-50
2022/01/22 13:14:17;;;;;;;12.55;9.00;;;5.10;99.90;;;;;;5020416;28;20631;-50
2022/01/22 13:16:53;;;;;;;9.20;7.70;;;5.10;99.90;;;;;;5029047;28;20725;-50
2022/01/22 13:19:24;;;;;;;8.95;7.85;;;5.10;99.90;;;;;;5021589;28;20224;-50
2022/01/22 13:21:55;;;;;;;9.35;7.10;;;5.10;99.90;;;;;;5004131;28;20217;-50
2022/01/22 13:24:25;;;;;;;10.05;7.50;;;5.10;99.90;;;;;;5029545;28;20193;-50
2022/01/22 13:26:58;;;;;;;11.18;7.53;;;5.10;99.90;;;;;;5030815;28;20243;-50
2022/01/22 13:29:31;;;;;;;10.05;8.20;;;5.10;99.90;;;;;;5024465;28;20249;-49
2022/01/22 13:32:10;;;;;;;9.52;7.65;;;5.10;99.90;;;;;;5021448;28;20592;-49
2022/01/22 13:35:02;;;;;;;9.48;6.72;;;5.10;99.90;;;;;;5020524;28;20202;-49
2022/01/22 13:40:31;;;;;;;8.40;7.57;;;5.10;99.90;;;;;;5021151;28;20812;-49
2022/01/22 13:48:41;;;;;;;11.85;7.63;;;5.10;99.90;;;;;;5025074;28;20216;-50
2022/01/22 13:51:10;;;;;;;9.52;7.70;;;5.10;99.90;;;;;;5020857;28;20312;-51
2022/01/22 13:53:40;;;;;;;9.57;7.80;;;5.10;99.90;;;;;;5014516;28;20541;-50
2022/01/22 13:56:12;;;;;;;10.25;8.23;;;5.10;99.90;;;;;;5002554;28;20213;-51
2022/01/22 13:58:40;;;;;;;9.00;7.07;;;5.10;99.90;;;;;;5021358;28;20205;-51
2022/01/22 14:01:31;;;;;;;12.90;8.63;;;5.10;99.90;;;;;;5019461;28;20213;-50
2022/01/22 14:04:09;;;;;;;10.30;7.75;;;5.10;99.90;;;;;;5018027;28;20680;-49
2022/01/22 14:06:43;;;;;;;12.05;8.93;;;5.10;99.90;;;;;;5022562;28;20227;-51
2022/01/22 14:09:16;;;;;;;9.52;8.50;;;5.10;99.90;;;;;;5022411;28;20212;-50
2022/01/22 14:12:05;;;;;;;8.38;7.47;;;5.10;99.90;;;;;;5020165;28;20264;-50
2022/01/22 14:14:56;;;;;;;10.90;8.18;;;5.10;99.90;;;;;;5024905;28;20564;-50
2022/01/22 14:17:31;;;;;;;9.50;7.90;;;5.10;99.90;;;;;;5027988;28;20541;-51
2022/01/22 14:20:06;;;;;;;10.23;7.97;;;5.10;99.90;;;;;;5019321;28;20632;-50
2022/01/22 14:23:05;;;;;;;10.93;8.27;;;5.10;99.90;;;;;;5014342;28;20228;-49
2022/01/22 14:25:35;;;;;;;9.00;7.13;;;5.10;99.90;;;;;;5019953;28;20304;-50
2022/01/22 14:28:13;;;;;;;8.23;7.38;;;5.10;99.90;;;;;;5012122;28;20234;-49
2022/01/22 14:30:44;;;;;;;10.95;8.30;;;5.10;99.90;;;;;;5028604;28;20224;-49
2022/01/22 14:33:15;;;;;;;9.10;7.95;;;5.10;99.90;;;;;;5021754;28;20192;-49
2022/01/22 14:35:48;;;;;;;11.32;8.65;;;5.10;99.90;;;;;;5013385;28;20300;-49
2022/01/22 14:38:39;;;;;;;10.63;8.65;;;5.10;99.90;;;;;;5009736;28;20581;-50
2022/01/22 14:44:05;;;;;;;10.80;8.18;;;5.10;99.90;;;;;;5021358;28;20582;-49
2022/01/22 14:46:53;;;;;;;10.10;7.82;;;5.20;99.90;;;;;;5014309;28;20300;-49
2022/01/22 14:49:32;;;;;;;8.88;7.97;;;5.10;99.90;;;;;;5029045;28;20715;-49
2022/01/22 14:52:01;;;;;;;9.85;7.95;;;5.10;99.90;;;;;;5015874;28;20282;-49
2022/01/22 14:54:33;;;;;;;10.35;8.13;;;5.10;99.90;;;;;;5012948;28;20264;-49
2022/01/22 14:57:02;;;;;;;10.00;8.85;;;5.10;99.90;;;;;;5017956;28;20220;-50
2022/01/22 14:59:30;;;;;;;10.15;7.88;;;5.10;99.90;;;;;;5017305;28;20217;-49
2022/01/22 15:02:00;;;;;;;11.75;8.13;;;5.10;99.90;;;;;;5010687;28;20221;-49
2022/01/22 15:04:31;;;;;;;11.25;7.80;;;5.20;99.90;;;;;;5026281;28;20186;-49
2022/01/22 15:07:02;;;;;;;10.20;8.13;;;5.10;99.90;;;;;;4993536;28;20584;-49